createdAt,value
2022-11-23T05:02:33.590Z,5.65
2022-11-23T05:05:00.271Z,5.00
2022-11-23T05:07:26.857Z,5.25
2022-11-23T05:09:53.493Z,5.63
2022-11-23T05:12:20.022Z,5.80
2022-11-23T05:14:46.879Z,6.30
2022-11-23T05:17:13.466Z,6.15
2022-11-23T05:19:40.050Z,5.97
2022-11-23T05:22:06.580Z,5.77
2022-11-23T05:24:33.104Z,6.20
2022-11-23T05:26:59.646Z,6.82
2022-11-23T05:29:26.208Z,6.30
2022-11-23T05:31:52.744Z,6.15
2022-11-23T05:34:19.262Z,5.93
2022-11-23T05:36:45.814Z,6.10
2022-11-23T05:39:12.393Z,5.25
2022-11-23T05:41:38.896Z,4.63
2022-11-23T05:44:05.459Z,4.78
2022-11-23T05:46:32.027Z,4.53
2022-11-23T05:48:58.548Z,3.88
2022-11-23T05:51:25.065Z,3.20
2022-11-23T05:53:51.799Z,2.50
2022-11-23T05:56:18.365Z,2.70
2022-11-23T05:58:44.905Z,2.27
2022-11-23T06:01:12.673Z,2.35
2022-11-23T06:03:39.295Z,2.33
2022-11-23T06:06:06.580Z,2.25
2022-11-23T06:08:33.175Z,2.10
2022-11-23T06:11:03.129Z,1.70
2022-11-23T06:13:29.666Z,1.95
2022-11-23T06:15:57.127Z,1.70
2022-11-23T06:18:23.653Z,1.58
2022-11-23T06:20:50.137Z,1.65
2022-11-23T06:23:16.850Z,1.80
2022-11-23T06:25:43.525Z,1.73
2022-11-23T06:28:10.163Z,2.28
2022-11-23T06:30:36.734Z,1.70
2022-11-23T06:33:04.750Z,2.22
2022-11-23T06:35:34.213Z,2.10
2022-11-23T06:38:00.951Z,1.95
2022-11-23T06:40:28.834Z,2.10
2022-11-23T06:43:00.096Z,1.80
2022-11-23T06:45:27.438Z,2.28
2022-11-23T06:47:57.059Z,2.00
2022-11-23T06:50:23.841Z,1.75
2022-11-23T06:52:55.349Z,2.00
2022-11-23T06:55:22.175Z,2.08
2022-11-23T06:57:48.807Z,2.08
2022-11-23T07:00:15.791Z,2.17
2022-11-23T07:02:42.528Z,1.60
2022-11-23T07:05:09.822Z,2.22
2022-11-23T07:07:36.398Z,1.98
2022-11-23T07:10:07.007Z,2.38
2022-11-23T07:12:34.062Z,2.27
2022-11-23T07:15:02.750Z,2.55
2022-11-23T07:17:29.293Z,2.28
2022-11-23T07:19:55.875Z,1.83
2022-11-23T07:22:22.408Z,2.42
2022-11-23T07:24:48.986Z,2.27
2022-11-23T07:27:17.907Z,2.47
2022-11-23T07:29:44.479Z,2.17
2022-11-23T07:32:11.012Z,1.80
2022-11-23T07:34:37.563Z,2.05
2022-11-23T07:37:04.667Z,1.67
2022-11-23T07:39:55.120Z,1.92
2022-11-23T07:42:32.331Z,1.95
2022-11-23T07:44:59.496Z,1.80
2022-11-23T07:47:26.077Z,1.70
2022-11-23T07:49:52.674Z,1.63
2022-11-23T07:52:19.256Z,2.28
2022-11-23T07:54:46.027Z,2.17
2022-11-23T07:57:12.589Z,2.60
2022-11-23T07:59:39.772Z,2.17
2022-11-23T08:02:06.775Z,2.40
2022-11-23T08:04:33.511Z,2.60
2022-11-23T08:07:02.590Z,2.05
2022-11-23T08:09:29.169Z,2.05
2022-11-23T08:11:55.725Z,2.30
2022-11-23T08:14:24.600Z,2.40
2022-11-23T08:16:52.352Z,2.15
2022-11-23T08:19:19.277Z,2.10
2022-11-23T08:21:46.019Z,2.20
2022-11-23T08:24:13.025Z,1.60
2022-11-23T08:26:39.640Z,2.47
2022-11-23T08:29:06.187Z,2.40
2022-11-23T08:31:33.189Z,2.20
2022-11-23T08:34:03.212Z,2.08
2022-11-23T08:36:30.335Z,2.17
2022-11-23T08:38:56.890Z,2.63
2022-11-23T08:41:23.529Z,1.90
2022-11-23T08:43:51.188Z,2.38
2022-11-23T08:46:18.187Z,2.20
2022-11-23T08:48:44.716Z,2.42
2022-11-23T08:51:11.729Z,2.30
2022-11-23T08:53:38.726Z,2.28
2022-11-23T08:56:07.499Z,2.38
2022-11-23T08:58:34.128Z,2.50
2022-11-23T09:01:00.759Z,2.22
2022-11-23T09:03:27.292Z,2.80
2022-11-23T09:05:54.790Z,2.78
2022-11-23T09:08:21.358Z,2.75
2022-11-23T09:10:47.918Z,2.33
2022-11-23T09:13:14.572Z,2.60
2022-11-23T09:15:41.191Z,2.30
2022-11-23T09:18:07.780Z,2.75
2022-11-23T09:20:34.349Z,2.53
2022-11-23T09:23:00.875Z,2.60
2022-11-23T09:25:27.409Z,2.75
2022-11-23T09:27:59.111Z,2.57
2022-11-23T09:30:27.629Z,2.20
2022-11-23T09:32:56.988Z,2.58
2022-11-23T09:35:23.681Z,2.30
2022-11-23T09:37:58.474Z,2.30
2022-11-23T09:40:37.370Z,2.37
2022-11-23T09:43:42.333Z,2.28
2022-11-23T09:46:36.973Z,2.35
2022-11-23T09:49:22.517Z,2.50
2022-11-23T09:51:54.831Z,2.85
2022-11-23T09:54:40.396Z,2.50
2022-11-23T09:57:06.981Z,2.60
2022-11-23T09:59:41.499Z,2.33
2022-11-23T10:02:36.192Z,2.38
2022-11-23T10:05:04.499Z,2.17
2022-11-23T10:08:10.503Z,2.50
2022-11-23T10:10:45.300Z,2.17
2022-11-23T10:13:44.771Z,1.95
2022-11-23T10:16:22.324Z,2.63
2022-11-23T10:19:18.303Z,2.38
2022-11-23T10:22:20.164Z,2.20
2022-11-23T10:24:51.039Z,2.60
2022-11-23T10:27:20.213Z,2.50
2022-11-23T10:29:47.981Z,2.42
2022-11-23T10:32:38.729Z,2.10
2022-11-23T10:35:15.712Z,2.30
2022-11-23T10:37:42.974Z,2.30
2022-11-23T10:40:26.657Z,2.13
2022-11-23T10:43:12.605Z,2.00
2022-11-23T10:45:39.156Z,2.72
2022-11-23T10:48:05.745Z,2.60
2022-11-23T10:50:37.664Z,2.00
2022-11-23T10:53:26.030Z,2.17
2022-11-23T10:55:59.112Z,2.22
2022-11-23T10:58:25.634Z,2.63
2022-11-23T11:01:12.185Z,2.60
2022-11-23T11:03:39.081Z,2.80
2022-11-23T11:06:08.998Z,2.22
2022-11-23T11:08:49.537Z,2.80
2022-11-23T11:11:31.247Z,2.33
2022-11-23T11:14:06.888Z,2.20
2022-11-23T11:16:36.391Z,3.80
2022-11-23T11:19:32.065Z,2.90
2022-11-23T11:22:01.054Z,2.20
2022-11-23T11:24:37.602Z,2.20
2022-11-23T11:27:15.872Z,2.07
2022-11-23T11:29:45.381Z,2.10
2022-11-23T11:32:33.098Z,2.30
2022-11-23T11:35:21.177Z,2.15
2022-11-23T11:37:50.782Z,1.90
2022-11-23T11:40:51.342Z,1.67
2022-11-23T11:43:37.871Z,1.70
2022-11-23T11:46:29.092Z,1.75
2022-11-23T11:49:03.638Z,1.60
2022-11-23T11:51:35.711Z,1.60
2022-11-23T11:54:25.625Z,1.40
2022-11-23T11:56:55.737Z,1.33
2022-11-23T11:59:44.393Z,1.20
2022-11-23T12:02:36.511Z,1.33
2022-11-23T12:05:20.509Z,1.35
2022-11-23T12:08:02.749Z,1.63
2022-11-23T12:10:48.056Z,1.60
2022-11-23T12:13:27.208Z,1.45
2022-11-23T12:16:24.876Z,1.45
2022-11-23T12:19:20.708Z,1.20
2022-11-23T12:22:11.487Z,1.13
2022-11-23T12:24:53.276Z,1.30
2022-11-23T12:27:41.055Z,1.45
2022-11-23T12:30:21.067Z,1.25
2022-11-23T12:32:54.706Z,1.30
2022-11-23T12:35:45.946Z,1.07
2022-11-23T12:38:31.620Z,1.10
2022-11-23T12:41:20.824Z,1.00
2022-11-23T12:43:53.376Z,1.15
2022-11-23T12:46:28.995Z,1.15
2022-11-23T12:49:12.372Z,1.17
2022-11-23T12:52:06.498Z,1.00
2022-11-23T12:54:45.161Z,1.45
2022-11-23T12:57:27.952Z,0.82
2022-11-23T13:00:17.059Z,1.30
2022-11-23T13:02:53.127Z,1.40
2022-11-23T13:05:28.431Z,1.63
2022-11-23T13:08:10.254Z,1.08
2022-11-23T13:10:52.951Z,1.10
2022-11-23T13:13:42.685Z,1.10
2022-11-23T13:16:54.669Z,1.27
2022-11-23T13:19:33.708Z,1.30
2022-11-23T13:22:00.812Z,1.60
2022-11-23T13:24:33.574Z,1.83
2022-11-23T13:27:15.416Z,1.23
2022-11-23T13:29:50.767Z,1.10
2022-11-23T13:32:39.134Z,1.73
2022-11-23T13:35:25.881Z,2.05
2022-11-23T13:37:58.470Z,2.00
2022-11-23T13:40:36.332Z,1.67
2022-11-23T13:43:13.654Z,1.47
2022-11-23T13:45:40.280Z,2.00
2022-11-23T13:48:09.701Z,1.85
2022-11-23T13:50:55.031Z,2.17
2022-11-23T13:53:36.667Z,1.60
2022-11-23T13:56:43.056Z,1.50
2022-11-23T13:59:24.706Z,2.35
2022-11-23T14:02:10.257Z,1.88
2022-11-23T14:04:40.921Z,1.63
2022-11-23T14:07:10.592Z,1.45
2022-11-23T14:10:04.061Z,1.50
2022-11-23T14:13:02.016Z,1.38
2022-11-23T14:15:42.349Z,2.15
2022-11-23T14:18:25.328Z,2.63
2022-11-23T14:21:25.962Z,2.58
2022-11-23T14:24:20.331Z,2.10
2022-11-23T14:27:39.069Z,3.30
2022-11-23T14:30:29.193Z,2.50
2022-11-23T14:33:21.177Z,1.77
2022-11-23T14:36:11.196Z,1.60
2022-11-23T14:38:59.188Z,1.55
2022-11-23T14:41:29.694Z,2.08
2022-11-23T14:43:57.434Z,1.90
2022-11-23T14:46:27.342Z,1.77
2022-11-23T14:49:04.843Z,1.60
2022-11-23T14:51:31.629Z,1.85
2022-11-23T14:54:01.515Z,2.00
2022-11-23T14:56:38.391Z,2.15
2022-11-23T14:59:09.413Z,1.80
2022-11-23T15:01:37.517Z,1.77
2022-11-23T15:04:23.732Z,1.77
2022-11-23T15:06:55.879Z,1.58
2022-11-23T15:09:47.530Z,2.90
2022-11-23T15:12:27.204Z,3.30
2022-11-23T15:14:57.458Z,3.17
2022-11-23T15:17:25.041Z,2.13
2022-11-23T15:19:59.720Z,2.38
2022-11-23T15:22:28.303Z,2.10
2022-11-23T15:25:06.039Z,2.37
2022-11-23T15:27:32.561Z,2.72
2022-11-23T15:30:00.760Z,2.05
2022-11-23T15:32:33.748Z,2.55
2022-11-23T15:35:07.948Z,2.03
2022-11-23T15:37:44.258Z,2.63
2022-11-23T15:40:18.939Z,3.03
2022-11-23T15:42:48.216Z,2.15
2022-11-23T15:45:34.009Z,2.40
2022-11-23T15:48:03.103Z,5.63
2022-11-23T15:50:33.768Z,3.50
2022-11-23T15:53:01.304Z,2.50
2022-11-23T15:55:29.929Z,2.90
2022-11-23T15:57:57.232Z,3.75
2022-11-23T16:00:25.852Z,4.00
2022-11-23T16:02:53.178Z,5.70
2022-11-23T16:05:23.673Z,10.32
2022-11-23T16:08:01.367Z,6.85
2022-11-23T16:10:29.193Z,6.40
2022-11-23T16:12:58.529Z,5.55
2022-11-23T16:15:34.258Z,8.47
2022-11-23T16:18:02.366Z,5.55
2022-11-23T16:20:29.910Z,6.32
2022-11-23T16:22:59.457Z,5.43
2022-11-23T16:25:26.139Z,5.53
2022-11-23T16:28:23.413Z,4.30
2022-11-23T16:30:50.119Z,5.80
2022-11-23T16:33:18.661Z,6.40
2022-11-23T16:35:46.053Z,5.45
2022-11-23T16:38:12.714Z,5.47
2022-11-23T16:40:40.087Z,5.70
2022-11-23T16:43:06.692Z,4.75
2022-11-23T16:45:33.573Z,4.88
2022-11-23T16:48:02.426Z,5.20
2022-11-23T16:50:33.828Z,5.57
2022-11-23T16:53:15.517Z,4.93
2022-11-23T16:55:43.819Z,5.32
2022-11-23T16:58:14.587Z,5.25
2022-11-23T17:00:42.040Z,5.38
2022-11-23T17:03:14.463Z,6.35
2022-11-23T17:05:41.122Z,6.50
2022-11-23T17:08:07.879Z,6.38
2022-11-23T17:10:36.947Z,5.88
2022-11-23T17:13:04.408Z,5.97
2022-11-23T17:15:31.048Z,6.53
2022-11-23T17:17:57.616Z,6.90
2022-11-23T17:20:24.706Z,19.13
2022-11-23T17:22:51.964Z,15.07
2022-11-23T17:25:18.971Z,20.63
2022-11-23T17:27:48.360Z,9.85
2022-11-23T17:30:18.027Z,7.83
2022-11-23T17:32:44.588Z,8.98
2022-11-23T17:35:11.165Z,7.93
2022-11-23T17:37:37.799Z,6.88
2022-11-23T17:40:04.882Z,8.07
2022-11-23T17:42:31.414Z,8.80
2022-11-23T17:44:58.141Z,11.20
2022-11-23T17:47:28.924Z,8.15
2022-11-23T17:49:56.106Z,10.68
2022-11-23T17:52:23.496Z,12.65
2022-11-23T17:54:51.266Z,8.97
2022-11-23T17:57:22.949Z,9.93
2022-11-23T17:59:50.044Z,9.32
2022-11-23T18:02:16.661Z,8.25
2022-11-23T18:04:43.188Z,7.53
2022-11-23T18:07:13.602Z,8.30
2022-11-23T18:09:41.060Z,7.07
2022-11-23T18:12:08.042Z,6.65
2022-11-23T18:14:34.741Z,7.72
2022-11-23T18:17:01.511Z,7.03
2022-11-23T18:19:28.147Z,6.37
2022-11-23T18:21:54.655Z,6.60
2022-11-23T18:24:21.208Z,6.50
2022-11-23T18:26:47.910Z,5.80
2022-11-23T18:29:17.228Z,6.75
2022-11-23T18:31:44.158Z,6.33
2022-11-23T18:34:10.806Z,7.00
2022-11-23T18:36:37.451Z,6.90
2022-11-23T18:39:04.124Z,6.38
2022-11-23T18:41:30.682Z,6.55
2022-11-23T18:43:57.392Z,6.23
2022-11-23T18:46:24.335Z,6.13
2022-11-23T18:48:51.446Z,5.85
2022-11-23T18:51:18.669Z,6.00
2022-11-23T18:53:48.619Z,6.28
2022-11-23T18:56:15.276Z,5.67
2022-11-23T18:58:43.620Z,6.07
2022-11-23T19:01:15.231Z,6.28
2022-11-23T19:03:42.299Z,7.32
2022-11-23T19:06:13.423Z,9.88
2022-11-23T19:08:41.967Z,7.97
2022-11-23T19:11:18.023Z,11.13
2022-11-23T19:13:49.643Z,9.65
2022-11-23T19:16:22.910Z,9.20
2022-11-23T19:19:01.546Z,6.95
2022-11-23T19:21:30.227Z,7.70
2022-11-23T19:23:57.991Z,6.20
2022-11-23T19:26:25.808Z,6.90
2022-11-23T19:28:53.339Z,6.68
2022-11-23T19:31:27.280Z,6.57
2022-11-23T19:33:57.762Z,6.37
2022-11-23T19:36:25.630Z,6.10
2022-11-23T19:38:52.583Z,6.40
2022-11-23T19:41:22.966Z,6.90
2022-11-23T19:43:56.385Z,6.75
2022-11-23T19:46:23.891Z,8.17
2022-11-23T19:48:52.930Z,7.50
2022-11-23T19:51:20.325Z,8.30
2022-11-23T19:53:51.410Z,8.63
2022-11-23T19:56:26.014Z,8.40
2022-11-23T19:58:57.966Z,7.87
2022-11-23T20:01:26.696Z,8.00
2022-11-23T20:03:55.369Z,7.90
2022-11-23T20:06:27.103Z,8.23
2022-11-23T20:09:03.522Z,8.50
2022-11-23T20:11:32.258Z,10.60
2022-11-23T20:13:59.124Z,8.38
2022-11-23T20:16:27.745Z,6.80
2022-11-23T20:18:57.235Z,6.10
2022-11-23T20:21:23.776Z,6.30
2022-11-23T20:24:04.665Z,7.10
2022-11-23T20:26:33.069Z,7.90
2022-11-23T20:28:59.979Z,6.20
2022-11-23T20:31:28.603Z,5.20
2022-11-23T20:33:56.449Z,5.40
2022-11-23T20:36:27.011Z,5.93
2022-11-23T20:38:53.970Z,5.57
2022-11-23T20:41:27.707Z,5.53
2022-11-23T20:44:03.211Z,5.45
2022-11-23T20:47:00.082Z,5.47
2022-11-23T20:49:17.860Z,5.87
2022-11-23T20:51:44.530Z,5.57
2022-11-23T20:54:11.179Z,5.13
2022-11-23T20:56:39.286Z,5.22
2022-11-23T20:59:05.986Z,6.07
2022-11-23T21:01:32.711Z,6.07
2022-11-23T21:04:00.031Z,5.18
2022-11-23T21:06:27.394Z,5.35
2022-11-23T21:08:54.409Z,5.78
2022-11-23T21:11:44.737Z,5.05
2022-11-23T21:14:18.448Z,5.90
2022-11-23T21:16:55.642Z,4.93
2022-11-23T21:19:27.566Z,5.22
2022-11-23T21:21:54.949Z,5.43
2022-11-23T21:24:21.583Z,5.13
2022-11-23T21:26:49.974Z,5.17
2022-11-23T21:29:17.649Z,5.00
2022-11-23T21:31:46.153Z,4.68
2022-11-23T21:34:21.345Z,5.40
2022-11-23T21:36:48.328Z,4.78
2022-11-23T21:39:15.921Z,5.10
2022-11-23T21:41:43.452Z,4.50
2022-11-23T21:44:10.369Z,4.10
2022-11-23T21:46:39.099Z,4.18
2022-11-23T21:49:12.030Z,4.43
2022-11-23T21:51:39.349Z,4.00
2022-11-23T21:54:08.383Z,4.65
2022-11-23T21:56:35.095Z,4.30
2022-11-23T21:59:02.249Z,4.18
2022-11-23T22:01:31.184Z,4.25
2022-11-23T22:04:01.174Z,3.87
2022-11-23T22:06:30.794Z,3.13
2022-11-23T22:08:59.807Z,3.55
2022-11-23T22:11:29.486Z,3.90
2022-11-23T22:13:58.407Z,3.22
2022-11-23T22:16:30.960Z,3.40
2022-11-23T22:18:59.036Z,3.47
2022-11-23T22:21:33.020Z,3.15
2022-11-23T22:24:00.042Z,3.83
2022-11-23T22:26:27.817Z,3.75
2022-11-23T22:28:55.594Z,3.40
2022-11-23T22:31:24.937Z,3.60
2022-11-23T22:33:54.380Z,2.97
2022-11-23T22:36:24.467Z,3.08
2022-11-23T22:39:00.989Z,3.33
2022-11-23T22:41:29.575Z,3.53
2022-11-23T22:43:56.937Z,3.35
2022-11-23T22:46:24.740Z,3.58
2022-11-23T22:48:53.463Z,3.63
2022-11-23T22:51:23.445Z,3.42
2022-11-23T22:53:58.497Z,3.07
2022-11-23T22:56:25.753Z,3.55
2022-11-23T22:58:52.796Z,3.30
